createdAt,value
2019-01-11T00:00:25.748Z,1007.72
2019-01-11T00:01:25.742Z,1007.74
2019-01-11T00:02:25.726Z,1007.73
2019-01-11T00:03:25.718Z,1007.76
2019-01-11T00:04:25.719Z,1007.74
2019-01-11T00:05:25.696Z,1007.74
2019-01-11T00:06:25.688Z,1007.72
2019-01-11T00:07:25.669Z,1007.70
2019-01-11T00:08:25.661Z,1007.64
2019-01-11T00:09:25.645Z,1007.65
2019-01-11T00:10:25.642Z,1007.63
2019-01-11T00:11:25.626Z,1007.62
2019-01-11T00:12:25.618Z,1007.64
2019-01-11T00:13:25.616Z,1007.67
2019-01-11T00:14:25.600Z,1007.69
2019-01-11T00:15:25.583Z,1007.67
2019-01-11T00:16:25.571Z,1007.64
2019-01-11T00:17:25.561Z,1007.66
2019-01-11T00:18:25.546Z,1007.62
2019-01-11T00:19:25.535Z,1007.64
2019-01-11T00:20:25.531Z,1007.65
2019-01-11T00:21:25.516Z,1007.66
2019-01-11T00:22:25.514Z,1007.67
2019-01-11T00:23:25.528Z,1007.65
2019-01-11T00:24:25.484Z,1007.69
2019-01-11T00:25:25.469Z,1007.69
2019-01-11T00:26:25.463Z,1007.66
2019-01-11T00:27:25.452Z,1007.67
2019-01-11T00:28:25.431Z,1007.62
2019-01-11T00:29:25.425Z,1007.63
2019-01-11T00:30:25.416Z,1007.60
2019-01-11T00:31:25.727Z,1007.58
2019-01-11T00:32:25.441Z,1007.55
2019-01-11T00:33:25.386Z,1007.58
2019-01-11T00:34:25.379Z,1007.58
2019-01-11T00:35:25.358Z,1007.60
2019-01-11T00:36:25.349Z,1007.55
2019-01-11T00:37:25.339Z,1007.55
2019-01-11T00:38:25.324Z,1007.58
2019-01-11T00:39:25.315Z,1007.58
2019-01-11T00:40:25.321Z,1007.58
2019-01-11T00:41:25.292Z,1007.60
2019-01-11T00:42:25.295Z,1007.62
2019-01-11T00:43:25.301Z,1007.63
2019-01-11T00:44:25.275Z,1007.59
2019-01-11T00:45:25.246Z,1007.58
2019-01-11T00:46:25.231Z,1007.56
2019-01-11T00:47:25.223Z,1007.50
2019-01-11T00:48:25.210Z,1007.54
2019-01-11T00:49:25.201Z,1007.51
2019-01-11T00:50:25.189Z,1007.53
2019-01-11T00:51:26.910Z,1007.61
2019-01-11T00:52:25.165Z,1007.52
2019-01-11T00:53:25.164Z,1007.51
2019-01-11T00:54:25.144Z,1007.49
2019-01-11T00:55:25.133Z,1007.47
2019-01-11T00:56:25.117Z,1007.46
2019-01-11T00:57:25.131Z,1007.45
2019-01-11T00:58:25.100Z,1007.43
2019-01-11T00:59:25.107Z,1007.43
2019-01-11T01:00:25.077Z,1007.43
2019-01-11T01:01:25.064Z,1007.44
2019-01-11T01:02:25.052Z,1007.44
2019-01-11T01:03:25.073Z,1007.42
2019-01-11T01:04:25.033Z,1007.43
2019-01-11T01:05:25.031Z,1007.41
2019-01-11T01:06:25.013Z,1007.37
2019-01-11T01:07:24.997Z,1007.37
2019-01-11T01:08:30.431Z,1007.35
2019-01-11T01:09:24.975Z,1007.34
2019-01-11T01:10:25.010Z,1007.35
2019-01-11T01:11:24.951Z,1007.37
2019-01-11T01:12:24.944Z,1007.32
2019-01-11T01:13:24.930Z,1007.29
2019-01-11T01:14:24.925Z,1007.32
2019-01-11T01:15:24.919Z,1007.24
2019-01-11T01:16:24.896Z,1007.23
2019-01-11T01:17:24.887Z,1007.27
2019-01-11T01:18:24.879Z,1007.25
2019-01-11T01:19:24.893Z,1007.24
2019-01-11T01:20:24.850Z,1007.22
2019-01-11T01:21:24.840Z,1007.23
2019-01-11T01:22:24.837Z,1007.22
2019-01-11T01:23:24.824Z,1007.22
2019-01-11T01:24:24.850Z,1007.24
2019-01-11T01:25:24.797Z,1007.22
2019-01-11T01:26:24.787Z,1007.26
2019-01-11T01:27:24.776Z,1007.16
2019-01-11T01:28:24.766Z,1007.19
2019-01-11T01:29:24.754Z,1007.21
2019-01-11T01:30:24.742Z,1007.14
2019-01-11T01:31:24.733Z,1007.11
2019-01-11T01:32:24.764Z,1007.14
2019-01-11T01:33:24.711Z,1007.13
2019-01-11T01:34:24.697Z,1007.13
2019-01-11T01:35:24.683Z,1007.12
2019-01-11T01:36:24.674Z,1007.19
2019-01-11T01:37:24.703Z,1007.19
2019-01-11T01:38:24.663Z,1007.26
2019-01-11T01:39:24.636Z,1007.24
2019-01-11T01:40:24.632Z,1007.22
2019-01-11T01:41:24.618Z,1007.19
2019-01-11T01:42:24.615Z,1007.17
2019-01-11T01:43:24.593Z,1007.13
2019-01-11T01:44:24.580Z,1007.15
2019-01-11T01:45:24.584Z,1007.15
2019-01-11T01:46:24.562Z,1007.12
2019-01-11T01:47:24.548Z,1007.14
2019-01-11T01:48:24.537Z,1007.13
2019-01-11T01:49:26.597Z,1007.08
2019-01-11T01:50:24.514Z,1007.10
2019-01-11T01:51:24.505Z,1007.13
2019-01-11T01:52:24.505Z,1007.11
2019-01-11T01:53:24.534Z,1007.09
2019-01-11T01:54:24.467Z,1007.09
2019-01-11T01:55:24.459Z,1007.08
2019-01-11T01:56:24.445Z,1007.09
2019-01-11T01:57:24.433Z,1007.14
2019-01-11T01:58:24.424Z,1007.10
2019-01-11T01:59:24.413Z,1007.11
2019-01-11T02:00:24.398Z,1007.15
2019-01-11T02:01:24.387Z,1007.18
2019-01-11T02:02:24.383Z,1007.16
2019-01-11T02:03:24.828Z,1007.14
2019-01-11T02:04:24.356Z,1007.13
2019-01-11T02:05:24.346Z,1007.11
2019-01-11T02:06:24.337Z,1007.12
2019-01-11T02:07:24.321Z,1007.08
2019-01-11T02:08:24.308Z,1007.07
2019-01-11T02:09:24.301Z,1007.09
2019-01-11T02:10:24.322Z,1007.10
2019-01-11T02:11:24.278Z,1007.08
2019-01-11T02:12:24.314Z,1007.09
2019-01-11T02:13:24.254Z,1007.07
2019-01-11T02:14:24.241Z,1007.07
2019-01-11T02:15:24.230Z,1007.07
2019-01-11T02:16:24.224Z,1007.09
2019-01-11T02:17:24.262Z,1007.07
2019-01-11T02:18:24.194Z,1007.09
2019-01-11T02:19:24.186Z,1007.09
2019-01-11T02:20:24.173Z,1007.11
2019-01-11T02:21:24.160Z,1007.09
2019-01-11T02:22:24.152Z,1007.08
2019-01-11T02:23:24.141Z,1007.07
2019-01-11T02:24:24.133Z,1007.10
2019-01-11T02:25:24.116Z,1007.06
2019-01-11T02:26:24.125Z,1007.07
2019-01-11T02:27:24.094Z,1007.09
2019-01-11T02:28:24.098Z,1007.08
2019-01-11T02:29:24.070Z,1007.10
2019-01-11T02:30:24.066Z,1007.04
2019-01-11T02:31:24.049Z,1007.05
2019-01-11T02:32:24.059Z,1007.05
2019-01-11T02:33:25.078Z,1007.04
2019-01-11T02:34:24.018Z,1007.06
2019-01-11T02:35:24.004Z,1007.04
2019-01-11T02:36:23.992Z,1007.03
2019-01-11T02:37:24.010Z,1007.04
2019-01-11T02:38:23.978Z,1007.04
2019-01-11T02:39:23.959Z,1007.02
2019-01-11T02:40:23.944Z,1006.98
2019-01-11T02:41:23.933Z,1006.96
2019-01-11T02:42:23.938Z,1006.99
2019-01-11T02:43:24.034Z,1006.94
2019-01-11T02:44:23.901Z,1006.97
2019-01-11T02:45:23.888Z,1006.95
2019-01-11T02:46:23.880Z,1006.92
2019-01-11T02:47:23.880Z,1006.90
2019-01-11T02:48:23.859Z,1006.90
2019-01-11T02:49:23.845Z,1006.87
2019-01-11T02:50:23.841Z,1006.89
2019-01-11T02:51:23.822Z,1006.88
2019-01-11T02:52:23.808Z,1006.80
2019-01-11T02:53:23.814Z,1006.81
2019-01-11T02:54:23.787Z,1006.79
2019-01-11T02:55:23.774Z,1006.78
2019-01-11T02:56:23.773Z,1006.77
2019-01-11T02:57:23.824Z,1006.75
2019-01-11T02:58:23.777Z,1006.81
2019-01-11T02:59:23.729Z,1006.77
2019-01-11T03:00:23.757Z,1006.82
2019-01-11T03:01:23.709Z,1006.85
2019-01-11T03:02:23.697Z,1006.85
2019-01-11T03:03:23.686Z,1006.83
2019-01-11T03:04:23.676Z,1006.79
2019-01-11T03:05:23.661Z,1006.78
2019-01-11T03:06:23.665Z,1006.78
2019-01-11T03:07:23.647Z,1006.74
2019-01-11T03:08:23.685Z,1006.71
2019-01-11T03:09:23.617Z,1006.70
2019-01-11T03:10:23.603Z,1006.67
2019-01-11T03:11:23.593Z,1006.71
2019-01-11T03:12:23.593Z,1006.70
2019-01-11T03:13:23.575Z,1006.63
2019-01-11T03:14:23.590Z,1006.65
2019-01-11T03:15:23.550Z,1006.62
2019-01-11T03:16:23.541Z,1006.65
2019-01-11T03:17:23.576Z,1006.62
2019-01-11T03:18:23.522Z,1006.62
2019-01-11T03:19:23.503Z,1006.63
2019-01-11T03:20:23.494Z,1006.63
2019-01-11T03:21:23.489Z,1006.62
2019-01-11T03:22:23.472Z,1006.60
2019-01-11T03:23:23.456Z,1006.60
2019-01-11T03:24:23.461Z,1006.60
2019-01-11T03:25:23.439Z,1006.59
2019-01-11T03:26:23.424Z,1006.57
2019-01-11T03:27:23.451Z,1006.59
2019-01-11T03:28:23.400Z,1006.58
2019-01-11T03:29:23.392Z,1006.52
2019-01-11T03:30:23.381Z,1006.56
2019-01-11T03:31:23.368Z,1006.59
2019-01-11T03:32:23.438Z,1006.53
2019-01-11T03:33:23.342Z,1006.56
2019-01-11T03:34:23.334Z,1006.54
2019-01-11T03:35:23.938Z,1006.55
2019-01-11T03:36:23.309Z,1006.56
2019-01-11T03:37:23.300Z,1006.57
2019-01-11T03:38:23.288Z,1006.56
2019-01-11T03:39:23.274Z,1006.54
2019-01-11T03:40:23.262Z,1006.54
2019-01-11T03:41:23.259Z,1006.49
2019-01-11T03:42:23.241Z,1006.49
2019-01-11T03:43:23.305Z,1006.50
2019-01-11T03:44:23.217Z,1006.50
2019-01-11T03:45:23.207Z,1006.51
2019-01-11T03:46:23.255Z,1006.52
2019-01-11T03:47:23.195Z,1006.52
2019-01-11T03:48:23.209Z,1006.53
2019-01-11T03:49:23.224Z,1006.51
2019-01-11T03:50:23.150Z,1006.49
2019-01-11T03:51:23.133Z,1006.48
2019-01-11T03:52:23.127Z,1006.45
2019-01-11T03:53:23.111Z,1006.47
2019-01-11T03:54:23.135Z,1006.45
2019-01-11T03:55:23.096Z,1006.43
2019-01-11T03:56:23.078Z,1006.43
2019-01-11T03:57:23.078Z,1006.44
2019-01-11T03:58:23.051Z,1006.43
2019-01-11T03:59:23.041Z,1006.41
2019-01-11T04:00:23.059Z,1006.40
2019-01-11T04:01:23.019Z,1006.38
2019-01-11T04:02:23.006Z,1006.39
2019-01-11T04:03:22.997Z,1006.40
2019-01-11T04:04:22.981Z,1006.42
2019-01-11T04:05:22.977Z,1006.36
2019-01-11T04:06:22.961Z,1006.32
2019-01-11T04:07:22.950Z,1006.28
2019-01-11T04:08:22.937Z,1006.28
2019-01-11T04:09:22.927Z,1006.28
2019-01-11T04:10:22.916Z,1006.24
2019-01-11T04:11:22.906Z,1006.23
2019-01-11T04:12:22.894Z,1006.23
2019-01-11T04:13:30.299Z,1006.20
2019-01-11T04:14:22.870Z,1006.20
2019-01-11T04:15:22.865Z,1006.20
2019-01-11T04:16:22.849Z,1006.21
2019-01-11T04:17:22.834Z,1006.20
2019-01-11T04:18:37.379Z,1006.19
2019-01-11T04:19:22.806Z,1006.19
2019-01-11T04:20:22.802Z,1006.19
2019-01-11T04:21:22.802Z,1006.14
2019-01-11T04:22:22.777Z,1006.18
2019-01-11T04:23:22.768Z,1006.18
2019-01-11T04:24:22.756Z,1006.18
2019-01-11T04:25:22.748Z,1006.19
2019-01-11T04:26:22.730Z,1006.15
2019-01-11T04:27:22.720Z,1006.14
2019-01-11T04:28:22.718Z,1006.20
2019-01-11T04:29:22.693Z,1006.15
2019-01-11T04:30:22.684Z,1006.14
2019-01-11T04:31:22.675Z,1006.15
2019-01-11T04:32:22.663Z,1006.14
2019-01-11T04:33:22.652Z,1006.13
2019-01-11T04:34:22.640Z,1006.14
2019-01-11T04:35:22.630Z,1006.19
2019-01-11T04:36:22.671Z,1006.11
2019-01-11T04:37:22.606Z,1006.15
2019-01-11T04:38:22.597Z,1006.11
2019-01-11T04:39:22.582Z,1006.15
2019-01-11T04:40:22.572Z,1006.14
2019-01-11T04:41:22.566Z,1006.14
2019-01-11T04:42:22.548Z,1006.13
2019-01-11T04:43:22.537Z,1006.12
2019-01-11T04:44:22.527Z,1006.10
2019-01-11T04:45:22.514Z,1006.09
2019-01-11T04:46:22.509Z,1006.04
2019-01-11T04:47:22.540Z,1006.07
2019-01-11T04:48:22.481Z,1006.05
2019-01-11T04:49:22.471Z,1006.03
2019-01-11T04:50:22.459Z,1006.05
2019-01-11T04:51:22.447Z,1006.00
2019-01-11T04:52:22.435Z,1005.99
2019-01-11T04:53:22.425Z,1005.97
2019-01-11T04:54:22.413Z,1005.96
2019-01-11T04:55:22.404Z,1005.92
2019-01-11T04:56:22.388Z,1005.90
2019-01-11T04:57:22.376Z,1005.87
2019-01-11T04:58:22.367Z,1005.86
2019-01-11T04:59:22.353Z,1005.81
2019-01-11T05:00:22.344Z,1005.82
2019-01-11T05:01:22.331Z,1005.84
2019-01-11T05:02:22.318Z,1005.82
2019-01-11T05:03:22.304Z,1005.84
2019-01-11T05:04:22.291Z,1005.83
2019-01-11T05:05:22.288Z,1005.81
2019-01-11T05:06:22.273Z,1005.80
2019-01-11T05:07:23.132Z,1005.78
2019-01-11T05:08:22.249Z,1005.74
2019-01-11T05:09:22.243Z,1005.77
2019-01-11T05:10:22.226Z,1005.75
2019-01-11T05:11:22.214Z,1005.74
2019-01-11T05:12:22.214Z,1005.71
2019-01-11T05:13:22.193Z,1005.68
2019-01-11T05:14:22.181Z,1005.72
2019-01-11T05:15:22.167Z,1005.71
2019-01-11T05:16:22.152Z,1005.64
2019-01-11T05:17:22.147Z,1005.69
2019-01-11T05:18:22.134Z,1005.70
2019-01-11T05:19:22.119Z,1005.72
2019-01-11T05:20:22.110Z,1005.70
2019-01-11T05:21:22.099Z,1005.71
2019-01-11T05:22:22.088Z,1005.68
2019-01-11T05:23:22.076Z,1005.69
2019-01-11T05:24:22.063Z,1005.66
2019-01-11T05:25:22.061Z,1005.68
2019-01-11T05:26:22.040Z,1005.65
2019-01-11T05:27:22.037Z,1005.66
2019-01-11T05:28:22.017Z,1005.61
2019-01-11T05:29:22.005Z,1005.62
2019-01-11T05:30:21.994Z,1005.61
2019-01-11T05:31:21.982Z,1005.60
2019-01-11T05:32:21.970Z,1005.53
2019-01-11T05:33:21.961Z,1005.58
2019-01-11T05:34:21.949Z,1005.58
2019-01-11T05:35:21.932Z,1005.56
2019-01-11T05:36:21.926Z,1005.58
2019-01-11T05:37:21.914Z,1005.59
2019-01-11T05:38:21.905Z,1005.57
2019-01-11T05:39:21.888Z,1005.55
2019-01-11T05:40:21.879Z,1005.52
2019-01-11T05:41:21.865Z,1005.52
2019-01-11T05:42:21.857Z,1005.47
2019-01-11T05:43:21.842Z,1005.46
2019-01-11T05:44:21.834Z,1005.41
2019-01-11T05:45:21.821Z,1005.38
2019-01-11T05:46:21.805Z,1005.39
2019-01-11T05:47:21.796Z,1005.37
2019-01-11T05:48:21.784Z,1005.30
2019-01-11T05:49:21.775Z,1005.32
2019-01-11T05:50:24.402Z,1005.31
2019-01-11T05:51:21.754Z,1005.27
2019-01-11T05:52:21.812Z,1005.27
2019-01-11T05:53:21.735Z,1005.27
2019-01-11T05:54:21.717Z,1005.27
2019-01-11T05:55:21.708Z,1005.24
2019-01-11T05:56:21.690Z,1005.21
2019-01-11T05:57:21.681Z,1005.25
2019-01-11T05:58:21.667Z,1005.17
2019-01-11T05:59:21.660Z,1005.20
2019-01-11T06:00:21.659Z,1005.16
2019-01-11T06:01:21.634Z,1005.17
2019-01-11T06:02:21.624Z,1005.19
2019-01-11T06:03:21.611Z,1005.15
2019-01-11T06:04:21.599Z,1005.18
2019-01-11T06:05:21.590Z,1005.15
2019-01-11T06:06:21.579Z,1005.12
2019-01-11T06:07:21.571Z,1005.16
2019-01-11T06:08:21.898Z,1005.14
2019-01-11T06:09:21.541Z,1005.14
2019-01-11T06:10:21.528Z,1005.12
2019-01-11T06:11:21.518Z,1005.06
2019-01-11T06:12:21.507Z,1005.08
2019-01-11T06:13:21.492Z,1005.11
2019-01-11T06:14:21.482Z,1005.07
2019-01-11T06:15:21.466Z,1005.04
2019-01-11T06:16:21.459Z,1005.06
2019-01-11T06:17:21.449Z,1005.04
2019-01-11T06:18:21.455Z,1005.02
2019-01-11T06:19:21.424Z,1004.99
2019-01-11T06:20:21.415Z,1005.05
2019-01-11T06:21:21.404Z,1004.99
2019-01-11T06:22:21.392Z,1004.98
2019-01-11T06:23:21.377Z,1005.02
2019-01-11T06:24:21.368Z,1004.98
2019-01-11T06:25:21.364Z,1004.97
2019-01-11T06:26:21.343Z,1004.95
2019-01-11T06:27:21.331Z,1004.91
2019-01-11T06:28:21.320Z,1004.91
2019-01-11T06:29:21.310Z,1004.86
2019-01-11T06:30:21.294Z,1004.90
2019-01-11T06:31:21.287Z,1004.91
2019-01-11T06:32:21.274Z,1004.90
2019-01-11T06:33:21.260Z,1004.87
2019-01-11T06:34:21.250Z,1004.88
2019-01-11T06:35:21.238Z,1004.81
2019-01-11T06:36:21.225Z,1004.83
2019-01-11T06:37:21.223Z,1004.85
2019-01-11T06:38:21.209Z,1004.83
2019-01-11T06:39:21.190Z,1004.86
2019-01-11T06:40:21.196Z,1004.83
2019-01-11T06:41:21.166Z,1004.80
2019-01-11T06:42:21.163Z,1004.81
2019-01-11T06:43:21.146Z,1004.77
2019-01-11T06:44:21.133Z,1004.77
2019-01-11T06:45:21.123Z,1004.75
2019-01-11T06:46:21.114Z,1004.82
2019-01-11T06:47:21.096Z,1004.79
2019-01-11T06:48:21.087Z,1004.77
2019-01-11T06:49:21.075Z,1004.79
2019-01-11T06:50:21.098Z,1004.81
2019-01-11T06:51:21.053Z,1004.76
2019-01-11T06:52:21.042Z,1004.74
2019-01-11T06:53:21.033Z,1004.75
2019-01-11T06:54:21.019Z,1004.74
2019-01-11T06:55:21.011Z,1004.75
2019-01-11T06:56:20.994Z,1004.73
2019-01-11T06:57:20.979Z,1004.74
2019-01-11T06:58:20.973Z,1004.73
2019-01-11T06:59:20.964Z,1004.70
2019-01-11T07:00:20.947Z,1004.64
2019-01-11T07:01:20.936Z,1004.64
2019-01-11T07:02:22.331Z,1004.61
2019-01-11T07:03:21.799Z,1004.55
2019-01-11T07:04:20.905Z,1004.58
2019-01-11T07:05:20.892Z,1004.57
2019-01-11T07:06:20.881Z,1004.56
2019-01-11T07:07:20.871Z,1004.56
2019-01-11T07:08:20.856Z,1004.58
2019-01-11T07:09:20.842Z,1004.58
2019-01-11T07:10:20.838Z,1004.57
2019-01-11T07:11:20.823Z,1004.60
2019-01-11T07:12:20.814Z,1004.59
2019-01-11T07:13:20.796Z,1004.58
2019-01-11T07:14:20.786Z,1004.52
2019-01-11T07:15:20.775Z,1004.54
2019-01-11T07:16:20.761Z,1004.54
2019-01-11T07:17:20.751Z,1004.54
2019-01-11T07:18:20.738Z,1004.53
2019-01-11T07:19:20.728Z,1004.61
2019-01-11T07:20:20.734Z,1004.60
2019-01-11T07:21:20.701Z,1004.63
2019-01-11T07:22:20.694Z,1004.65
2019-01-11T07:23:20.686Z,1004.66
2019-01-11T07:24:20.668Z,1004.69
2019-01-11T07:25:20.658Z,1004.69
2019-01-11T07:26:20.646Z,1004.66
2019-01-11T07:27:20.636Z,1004.65
2019-01-11T07:28:22.373Z,1004.65
2019-01-11T07:29:20.615Z,1004.66
2019-01-11T07:30:20.599Z,1004.66
2019-01-11T07:31:20.588Z,1004.65
2019-01-11T07:32:20.577Z,1004.68
2019-01-11T07:33:20.564Z,1004.63
2019-01-11T07:34:20.556Z,1004.65
2019-01-11T07:35:20.550Z,1004.67
2019-01-11T07:36:20.530Z,1004.66
2019-01-11T07:37:20.519Z,1004.70
2019-01-11T07:38:20.511Z,1004.67
2019-01-11T07:39:20.495Z,1004.66
2019-01-11T07:40:21.060Z,1004.66
2019-01-11T07:41:20.474Z,1004.64
2019-01-11T07:42:20.458Z,1004.66
2019-01-11T07:43:20.449Z,1004.62
2019-01-11T07:44:20.437Z,1004.65
2019-01-11T07:45:20.427Z,1004.66
2019-01-11T07:46:20.417Z,1004.65
2019-01-11T07:47:20.403Z,1004.65
2019-01-11T07:48:20.393Z,1004.63
2019-01-11T07:49:23.231Z,1004.61
2019-01-11T07:50:20.368Z,1004.59
2019-01-11T07:51:20.354Z,1004.57
2019-01-11T07:52:20.342Z,1004.57
2019-01-11T07:53:20.335Z,1004.57
2019-01-11T07:54:20.326Z,1004.53
2019-01-11T07:55:20.308Z,1004.52
2019-01-11T07:56:20.304Z,1004.49
2019-01-11T07:57:20.292Z,1004.49
2019-01-11T07:58:20.277Z,1004.45
2019-01-11T07:59:20.264Z,1004.44
2019-01-11T08:00:20.252Z,1004.47
2019-01-11T08:01:20.239Z,1004.49
2019-01-11T08:02:20.232Z,1004.42
2019-01-11T08:03:20.217Z,1004.41
2019-01-11T08:04:20.202Z,1004.43
2019-01-11T08:05:20.200Z,1004.41
2019-01-11T08:06:20.185Z,1004.41
2019-01-11T08:07:20.175Z,1004.41
2019-01-11T08:08:21.869Z,1004.39
2019-01-11T08:09:20.148Z,1004.37
2019-01-11T08:10:20.144Z,1004.34
2019-01-11T08:11:20.124Z,1004.38
2019-01-11T08:12:20.114Z,1004.36
2019-01-11T08:13:20.132Z,1004.40
2019-01-11T08:14:20.090Z,1004.36
2019-01-11T08:15:20.081Z,1004.37
2019-01-11T08:16:20.066Z,1004.36
2019-01-11T08:17:20.059Z,1004.31
2019-01-11T08:18:20.042Z,1004.34
2019-01-11T08:19:20.031Z,1004.32
2019-01-11T08:20:20.019Z,1004.30
2019-01-11T08:21:20.006Z,1004.31
2019-01-11T08:22:20.000Z,1004.26
2019-01-11T08:23:20.006Z,1004.28
2019-01-11T08:24:19.974Z,1004.27
2019-01-11T08:25:19.961Z,1004.23
2019-01-11T08:26:19.950Z,1004.26
2019-01-11T08:27:19.937Z,1004.24
2019-01-11T08:28:19.928Z,1004.17
2019-01-11T08:29:19.913Z,1004.22
2019-01-11T08:30:19.903Z,1004.19
2019-01-11T08:31:19.891Z,1004.20
2019-01-11T08:32:19.897Z,1004.20
2019-01-11T08:33:19.871Z,1004.20
2019-01-11T08:34:19.856Z,1004.25
2019-01-11T08:35:19.842Z,1004.24
2019-01-11T08:36:19.836Z,1004.23
2019-01-11T08:37:19.822Z,1004.24
2019-01-11T08:38:19.812Z,1004.27
2019-01-11T08:39:19.800Z,1004.29
2019-01-11T08:40:19.786Z,1004.30
2019-01-11T08:41:19.842Z,1004.29
2019-01-11T08:42:19.791Z,1004.26
2019-01-11T08:43:19.750Z,1004.22
2019-01-11T08:44:19.745Z,1004.20
2019-01-11T08:45:19.731Z,1004.19
2019-01-11T08:46:19.762Z,1004.23
2019-01-11T08:47:20.308Z,1004.21
2019-01-11T08:48:19.696Z,1004.20
2019-01-11T08:49:19.691Z,1004.24
2019-01-11T08:50:19.673Z,1004.22
2019-01-11T08:51:19.671Z,1004.23
2019-01-11T08:52:19.650Z,1004.17
2019-01-11T08:53:19.642Z,1004.20
2019-01-11T08:54:19.628Z,1004.18
2019-01-11T08:55:19.614Z,1004.22
2019-01-11T08:56:19.604Z,1004.20
2019-01-11T08:57:19.595Z,1004.22
2019-01-11T08:58:19.579Z,1004.18
2019-01-11T08:59:19.567Z,1004.18
2019-01-11T09:00:19.560Z,1004.18
2019-01-11T09:01:19.547Z,1004.15
2019-01-11T09:02:19.542Z,1004.16
2019-01-11T09:03:19.533Z,1004.12
2019-01-11T09:04:19.512Z,1004.18
2019-01-11T09:05:19.502Z,1004.19
2019-01-11T09:06:19.503Z,1004.13
2019-01-11T09:07:19.490Z,1004.15
2019-01-11T09:08:19.467Z,1004.13
2019-01-11T09:09:19.458Z,1004.16
2019-01-11T09:10:23.004Z,1004.13
2019-01-11T09:11:19.433Z,1004.14
2019-01-11T09:12:20.224Z,1004.12
2019-01-11T09:13:19.420Z,1004.14
2019-01-11T09:14:19.396Z,1004.13
2019-01-11T09:15:19.384Z,1004.16
2019-01-11T09:16:20.764Z,1004.16
2019-01-11T09:17:19.365Z,1004.16
2019-01-11T09:18:19.360Z,1004.09
2019-01-11T09:19:19.337Z,1004.09
2019-01-11T09:20:19.331Z,1004.11
2019-01-11T09:21:19.330Z,1004.11
2019-01-11T09:22:19.308Z,1004.09
2019-01-11T09:23:19.292Z,1004.11
2019-01-11T09:24:19.286Z,1004.10
2019-01-11T09:25:19.278Z,1004.07
2019-01-11T09:26:19.262Z,1004.09
2019-01-11T09:27:19.247Z,1004.06
2019-01-11T09:28:19.240Z,1004.04
2019-01-11T09:29:19.227Z,1004.03
2019-01-11T09:30:19.290Z,1004.01
2019-01-11T09:31:19.260Z,1004.00
2019-01-11T09:32:19.192Z,1003.98
2019-01-11T09:33:20.685Z,1003.98
2019-01-11T09:34:19.173Z,1003.98
2019-01-11T09:35:19.157Z,1004.00
2019-01-11T09:36:19.150Z,1004.05
2019-01-11T09:37:19.139Z,1004.04
2019-01-11T09:38:19.193Z,1004.00
2019-01-11T09:39:19.110Z,1004.00
2019-01-11T09:40:20.873Z,1004.06
2019-01-11T09:41:19.086Z,1004.05
2019-01-11T09:42:19.078Z,1004.08
2019-01-11T09:43:19.062Z,1004.07
2019-01-11T09:44:19.052Z,1004.07
2019-01-11T09:45:19.044Z,1004.07
2019-01-11T09:46:19.032Z,1004.06
2019-01-11T09:47:19.018Z,1004.03
2019-01-11T09:48:19.009Z,1004.01
2019-01-11T09:49:19.236Z,1004.03
2019-01-11T09:50:18.987Z,1004.04
2019-01-11T09:51:18.975Z,1004.00
2019-01-11T09:52:18.978Z,1003.97
2019-01-11T09:53:18.951Z,1003.96
2019-01-11T09:54:18.942Z,1003.98
2019-01-11T09:55:18.924Z,1004.01
2019-01-11T09:56:18.917Z,1004.01
2019-01-11T09:57:18.925Z,1004.03
2019-01-11T09:58:18.897Z,1004.07
2019-01-11T09:59:18.888Z,1004.04
2019-01-11T10:00:18.986Z,1004.03
2019-01-11T10:01:18.859Z,1003.95
2019-01-11T10:02:18.847Z,1004.00
2019-01-11T10:03:18.842Z,1004.02
2019-01-11T10:04:18.827Z,1004.00
2019-01-11T10:05:18.820Z,1003.98
2019-01-11T10:06:18.807Z,1003.96
2019-01-11T10:07:18.795Z,1003.93
2019-01-11T10:08:18.780Z,1003.97
2019-01-11T10:09:18.771Z,1003.97
2019-01-11T10:10:18.762Z,1003.95
2019-01-11T10:11:18.747Z,1003.92
2019-01-11T10:12:18.745Z,1003.89
2019-01-11T10:13:19.008Z,1003.86
2019-01-11T10:14:18.723Z,1003.85
2019-01-11T10:15:18.703Z,1003.90
2019-01-11T10:16:18.695Z,1003.90
2019-01-11T10:17:18.680Z,1003.92
2019-01-11T10:18:18.669Z,1003.94
2019-01-11T10:19:18.657Z,1003.98
2019-01-11T10:20:18.649Z,1003.95
2019-01-11T10:21:22.316Z,1003.97
2019-01-11T10:22:18.630Z,1003.93
2019-01-11T10:23:18.612Z,1003.96
2019-01-11T10:24:18.601Z,1003.97
2019-01-11T10:25:18.590Z,1003.90
2019-01-11T10:26:18.578Z,1003.89
2019-01-11T10:27:18.570Z,1003.89
2019-01-11T10:28:18.556Z,1003.89
2019-01-11T10:29:18.545Z,1003.86
2019-01-11T10:30:18.535Z,1003.86
2019-01-11T10:31:18.523Z,1003.82
2019-01-11T10:32:18.539Z,1003.82
2019-01-11T10:33:18.501Z,1003.81
2019-01-11T10:34:18.491Z,1003.81
2019-01-11T10:35:18.474Z,1003.82
2019-01-11T10:36:18.469Z,1003.83
2019-01-11T10:37:18.458Z,1003.82
2019-01-11T10:38:18.446Z,1003.80
2019-01-11T10:39:18.431Z,1003.77
2019-01-11T10:40:18.421Z,1003.82
2019-01-11T10:41:18.409Z,1003.81
2019-01-11T10:42:18.404Z,1003.79
2019-01-11T10:43:18.387Z,1003.81
2019-01-11T10:44:18.372Z,1003.78
2019-01-11T10:45:19.966Z,1003.78
2019-01-11T10:46:18.356Z,1003.77
2019-01-11T10:47:18.344Z,1003.78
2019-01-11T10:48:18.332Z,1003.74
2019-01-11T10:49:18.320Z,1003.77
2019-01-11T10:50:18.310Z,1003.81
2019-01-11T10:51:19.124Z,1003.78
2019-01-11T10:52:18.289Z,1003.70
2019-01-11T10:53:19.280Z,1003.72
2019-01-11T10:54:18.272Z,1003.74
2019-01-11T10:55:18.253Z,1003.66
2019-01-11T10:56:18.251Z,1003.70
2019-01-11T10:57:18.232Z,1003.67
2019-01-11T10:58:18.228Z,1003.64
2019-01-11T10:59:18.207Z,1003.62
2019-01-11T11:00:18.199Z,1003.64
2019-01-11T11:01:18.195Z,1003.61
2019-01-11T11:02:18.190Z,1003.63
2019-01-11T11:03:19.879Z,1003.64
2019-01-11T11:04:18.154Z,1003.61
2019-01-11T11:05:18.145Z,1003.59
2019-01-11T11:06:18.166Z,1003.57
2019-01-11T11:07:18.125Z,1003.62
2019-01-11T11:08:18.109Z,1003.59
2019-01-11T11:09:18.176Z,1003.59
2019-01-11T11:10:18.091Z,1003.59
2019-01-11T11:11:18.073Z,1003.58
2019-01-11T11:12:18.059Z,1003.59
2019-01-11T11:13:18.056Z,1003.57
2019-01-11T11:14:18.040Z,1003.53
2019-01-11T11:15:18.029Z,1003.52
2019-01-11T11:16:18.031Z,1003.46
2019-01-11T11:17:18.017Z,1003.42
2019-01-11T11:18:17.995Z,1003.37
2019-01-11T11:19:17.995Z,1003.40
2019-01-11T11:20:17.976Z,1003.37
2019-01-11T11:21:17.967Z,1003.37
2019-01-11T11:22:17.952Z,1003.42
2019-01-11T11:23:17.945Z,1003.44
2019-01-11T11:24:17.927Z,1003.42
2019-01-11T11:25:17.922Z,1003.42
2019-01-11T11:26:17.926Z,1003.37
2019-01-11T11:27:17.895Z,1003.36
2019-01-11T11:28:17.887Z,1003.31
2019-01-11T11:29:17.875Z,1003.32
2019-01-11T11:30:17.866Z,1003.30
2019-01-11T11:31:17.853Z,1003.25
2019-01-11T11:32:17.844Z,1003.24
2019-01-11T11:33:17.831Z,1003.26
2019-01-11T11:34:17.816Z,1003.24
2019-01-11T11:35:17.814Z,1003.20
2019-01-11T11:36:17.799Z,1003.24
2019-01-11T11:37:17.912Z,1003.26
2019-01-11T11:38:17.776Z,1003.18
2019-01-11T11:39:17.767Z,1003.15
2019-01-11T11:40:17.756Z,1003.12
2019-01-11T11:41:17.741Z,1003.10
2019-01-11T11:42:17.784Z,1003.09
2019-01-11T11:43:17.720Z,1003.09
2019-01-11T11:44:17.708Z,1003.14
2019-01-11T11:45:18.190Z,1003.12
2019-01-11T11:46:17.688Z,1003.13
2019-01-11T11:47:17.676Z,1003.07
2019-01-11T11:48:17.666Z,1003.09
2019-01-11T11:49:17.653Z,1003.04
2019-01-11T11:50:17.643Z,1003.04
2019-01-11T11:51:17.677Z,1003.04
2019-01-11T11:52:17.618Z,1003.01
2019-01-11T11:53:19.393Z,1002.97
2019-01-11T11:54:19.379Z,1002.96
2019-01-11T11:55:17.598Z,1002.89
2019-01-11T11:56:18.056Z,1002.89
2019-01-11T11:57:17.563Z,1002.85
2019-01-11T11:58:17.554Z,1002.85
2019-01-11T11:59:17.553Z,1002.82
2019-01-11T12:00:17.836Z,1002.77
2019-01-11T12:01:17.550Z,1002.79
2019-01-11T12:02:19.423Z,1002.82
2019-01-11T12:03:17.500Z,1002.79
2019-01-11T12:04:17.494Z,1002.75
2019-01-11T12:05:17.473Z,1002.73